sensor_id;sensor_type;location;lat;lon;timestamp;temperature;humidity
19037;DHT22;9651;49.138;8.900;2022-08-19T00:01:12;21.50;99.90
19037;DHT22;9651;49.138;8.900;2022-08-19T00:05:14;21.50;99.90
19037;DHT22;9651;49.138;8.900;2022-08-19T00:09:18;21.60;99.90
19037;DHT22;9651;49.138;8.900;2022-08-19T00:13:20;21.70;99.90
19037;DHT22;9651;49.138;8.900;2022-08-19T00:17:23;21.80;99.90
19037;DHT22;9651;49.138;8.900;2022-08-19T00:21:26;21.80;99.90
19037;DHT22;9651;49.138;8.900;2022-08-19T00:25:28;21.70;99.90
19037;DHT22;9651;49.138;8.900;2022-08-19T00:29:30;21.60;99.90
19037;DHT22;9651;49.138;8.900;2022-08-19T00:33:34;21.60;99.90
19037;DHT22;9651;49.138;8.900;2022-08-19T00:37:36;21.60;99.90
19037;DHT22;9651;49.138;8.900;2022-08-19T00:41:38;21.70;99.90
19037;DHT22;9651;49.138;8.900;2022-08-19T00:45:40;21.60;99.90
19037;DHT22;9651;49.138;8.900;2022-08-19T00:49:49;21.50;99.90
19037;DHT22;9651;49.138;8.900;2022-08-19T00:53:53;21.50;99.90
19037;DHT22;9651;49.138;8.900;2022-08-19T00:57:57;21.50;99.90
19037;DHT22;9651;49.138;8.900;2022-08-19T01:01:59;21.40;99.90
19037;DHT22;9651;49.138;8.900;2022-08-19T01:06:03;21.40;99.90
19037;DHT22;9651;49.138;8.900;2022-08-19T01:10:09;21.30;99.90
19037;DHT22;9651;49.138;8.900;2022-08-19T01:14:12;21.40;99.90
19037;DHT22;9651;49.138;8.900;2022-08-19T01:18:16;21.40;99.90
19037;DHT22;9651;49.138;8.900;2022-08-19T01:22:26;21.40;99.90
19037;DHT22;9651;49.138;8.900;2022-08-19T01:26:28;21.30;99.90
19037;DHT22;9651;49.138;8.900;2022-08-19T01:30:33;21.20;99.90
19037;DHT22;9651;49.138;8.900;2022-08-19T01:34:36;21.30;99.90
19037;DHT22;9651;49.138;8.900;2022-08-19T01:38:41;21.40;99.90
19037;DHT22;9651;49.138;8.900;2022-08-19T01:42:44;21.30;99.90
19037;DHT22;9651;49.138;8.900;2022-08-19T01:46:47;21.30;99.90
19037;DHT22;9651;49.138;8.900;2022-08-19T01:50:49;21.40;99.90
19037;DHT22;9651;49.138;8.900;2022-08-19T01:54:53;21.40;99.90
19037;DHT22;9651;49.138;8.900;2022-08-19T01:58:58;21.40;99.90
19037;DHT22;9651;49.138;8.900;2022-08-19T02:03:01;21.50;99.90
19037;DHT22;9651;49.138;8.900;2022-08-19T02:07:03;21.50;99.90
19037;DHT22;9651;49.138;8.900;2022-08-19T02:11:07;21.40;99.90
19037;DHT22;9651;49.138;8.900;2022-08-19T02:15:10;21.40;99.90
19037;DHT22;9651;49.138;8.900;2022-08-19T02:19:12;21.40;99.90
19037;DHT22;9651;49.138;8.900;2022-08-19T02:23:15;21.40;99.90
19037;DHT22;9651;49.138;8.900;2022-08-19T02:27:18;21.40;99.90
19037;DHT22;9651;49.138;8.900;2022-08-19T02:31:23;21.40;99.90
19037;DHT22;9651;49.138;8.900;2022-08-19T02:35:25;21.40;99.90
19037;DHT22;9651;49.138;8.900;2022-08-19T02:39:27;21.30;99.90
19037;DHT22;9651;49.138;8.900;2022-08-19T02:43:32;21.30;99.90
19037;DHT22;9651;49.138;8.900;2022-08-19T02:47:36;21.30;99.90
19037;DHT22;9651;49.138;8.900;2022-08-19T02:51:42;21.30;99.90
19037;DHT22;9651;49.138;8.900;2022-08-19T02:55:46;21.20;99.90
19037;DHT22;9651;49.138;8.900;2022-08-19T02:59:49;21.10;99.90
19037;DHT22;9651;49.138;8.900;2022-08-19T03:03:52;21.00;99.90
19037;DHT22;9651;49.138;8.900;2022-08-19T03:07:54;21.00;99.90
19037;DHT22;9651;49.138;8.900;2022-08-19T03:11:56;20.90;99.90
19037;DHT22;9651;49.138;8.900;2022-08-19T03:15:59;20.90;99.90
19037;DHT22;9651;49.138;8.900;2022-08-19T03:20:02;20.90;99.90
19037;DHT22;9651;49.138;8.900;2022-08-19T03:24:06;20.80;99.90
19037;DHT22;9651;49.138;8.900;2022-08-19T03:28:09;20.80;99.90
19037;DHT22;9651;49.138;8.900;2022-08-19T03:32:13;20.70;99.90
19037;DHT22;9651;49.138;8.900;2022-08-19T03:36:18;20.70;99.90
19037;DHT22;9651;49.138;8.900;2022-08-19T03:40:21;20.60;99.90
19037;DHT22;9651;49.138;8.900;2022-08-19T03:44:23;20.60;99.90
19037;DHT22;9651;49.138;8.900;2022-08-19T03:48:26;20.50;99.90
19037;DHT22;9651;49.138;8.900;2022-08-19T03:52:28;20.50;99.90
19037;DHT22;9651;49.138;8.900;2022-08-19T03:56:30;20.40;99.90
19037;DHT22;9651;49.138;8.900;2022-08-19T04:00:32;20.40;99.90
19037;DHT22;9651;49.138;8.900;2022-08-19T04:04:36;20.40;99.90
19037;DHT22;9651;49.138;8.900;2022-08-19T04:08:39;20.30;99.90
19037;DHT22;9651;49.138;8.900;2022-08-19T04:12:41;20.20;99.90
19037;DHT22;9651;49.138;8.900;2022-08-19T04:16:44;20.20;99.90
19037;DHT22;9651;49.138;8.900;2022-08-19T04:20:48;20.20;99.90
19037;DHT22;9651;49.138;8.900;2022-08-19T04:24:50;20.20;99.90
19037;DHT22;9651;49.138;8.900;2022-08-19T04:28:52;20.20;99.90
19037;DHT22;9651;49.138;8.900;2022-08-19T04:32:54;20.20;99.90
19037;DHT22;9651;49.138;8.900;2022-08-19T04:36:58;20.20;99.90
19037;DHT22;9651;49.138;8.900;2022-08-19T04:41:03;20.30;99.90
19037;DHT22;9651;49.138;8.900;2022-08-19T04:45:22;20.30;99.90
19037;DHT22;9651;49.138;8.900;2022-08-19T04:49:24;20.30;99.90
19037;DHT22;9651;49.138;8.900;2022-08-19T04:53:29;20.40;99.90
19037;DHT22;9651;49.138;8.900;2022-08-19T04:57:31;20.40;99.90
19037;DHT22;9651;49.138;8.900;2022-08-19T05:01:34;20.50;99.90
19037;DHT22;9651;49.138;8.900;2022-08-19T05:05:39;20.50;99.90
19037;DHT22;9651;49.138;8.900;2022-08-19T05:09:43;20.50;99.90
19037;DHT22;9651;49.138;8.900;2022-08-19T05:13:45;20.50;99.90
19037;DHT22;9651;49.138;8.900;2022-08-19T05:17:47;20.60;99.90
19037;DHT22;9651;49.138;8.900;2022-08-19T05:22:03;20.70;99.90
19037;DHT22;9651;49.138;8.900;2022-08-19T05:26:24;20.80;99.90
19037;DHT22;9651;49.138;8.900;2022-08-19T05:30:26;20.90;99.90
19037;DHT22;9651;49.138;8.900;2022-08-19T05:34:28;20.90;99.90
19037;DHT22;9651;49.138;8.900;2022-08-19T05:38:31;21.00;99.90
19037;DHT22;9651;49.138;8.900;2022-08-19T05:42:35;21.10;99.90
19037;DHT22;9651;49.138;8.900;2022-08-19T05:46:37;21.10;99.90
19037;DHT22;9651;49.138;8.900;2022-08-19T05:50:41;21.20;99.90
19037;DHT22;9651;49.138;8.900;2022-08-19T05:54:43;21.20;99.90
19037;DHT22;9651;49.138;8.900;2022-08-19T05:58:46;21.30;99.90
19037;DHT22;9651;49.138;8.900;2022-08-19T06:02:48;21.30;99.90
19037;DHT22;9651;49.138;8.900;2022-08-19T06:06:52;21.30;99.90
19037;DHT22;9651;49.138;8.900;2022-08-19T06:10:55;21.30;99.90
19037;DHT22;9651;49.138;8.900;2022-08-19T06:14:58;21.30;99.90
19037;DHT22;9651;49.138;8.900;2022-08-19T06:19:06;21.20;99.90
19037;DHT22;9651;49.138;8.900;2022-08-19T06:23:08;21.20;99.90
19037;DHT22;9651;49.138;8.900;2022-08-19T06:27:10;21.30;99.90
19037;DHT22;9651;49.138;8.900;2022-08-19T06:31:14;21.40;99.90
19037;DHT22;9651;49.138;8.900;2022-08-19T06:35:17;21.50;99.90
19037;DHT22;9651;49.138;8.900;2022-08-19T06:39:21;21.60;99.90
19037;DHT22;9651;49.138;8.900;2022-08-19T06:43:23;21.60;99.90
19037;DHT22;9651;49.138;8.900;2022-08-19T06:47:26;21.70;99.90
19037;DHT22;9651;49.138;8.900;2022-08-19T06:51:28;21.70;99.90
19037;DHT22;9651;49.138;8.900;2022-08-19T06:55:32;21.80;99.90
19037;DHT22;9651;49.138;8.900;2022-08-19T06:59:34;21.90;99.90
19037;DHT22;9651;49.138;8.900;2022-08-19T07:03:37;21.90;99.90
19037;DHT22;9651;49.138;8.900;2022-08-19T07:07:40;21.90;99.90
19037;DHT22;9651;49.138;8.900;2022-08-19T07:11:45;22.00;99.90
19037;DHT22;9651;49.138;8.900;2022-08-19T07:15:47;22.20;99.90
19037;DHT22;9651;49.138;8.900;2022-08-19T07:19:51;22.20;99.90
19037;DHT22;9651;49.138;8.900;2022-08-19T07:23:54;22.40;99.90
19037;DHT22;9651;49.138;8.900;2022-08-19T07:27:56;22.50;99.90
19037;DHT22;9651;49.138;8.900;2022-08-19T07:31:58;22.50;99.90
19037;DHT22;9651;49.138;8.900;2022-08-19T07:36:03;22.70;99.90
19037;DHT22;9651;49.138;8.900;2022-08-19T07:40:06;22.90;99.90
19037;DHT22;9651;49.138;8.900;2022-08-19T07:44:09;23.10;99.90
19037;DHT22;9651;49.138;8.900;2022-08-19T07:48:11;23.20;99.90
19037;DHT22;9651;49.138;8.900;2022-08-19T07:52:16;23.40;99.90
19037;DHT22;9651;49.138;8.900;2022-08-19T07:56:19;23.60;99.90
19037;DHT22;9651;49.138;8.900;2022-08-19T08:00:21;23.90;99.90
19037;DHT22;9651;49.138;8.900;2022-08-19T08:04:23;24.40;99.90
19037;DHT22;9651;49.138;8.900;2022-08-19T08:08:43;24.80;99.90
19037;DHT22;9651;49.138;8.900;2022-08-19T08:13:03;25.20;99.90
19037;DHT22;9651;49.138;8.900;2022-08-19T08:17:06;25.30;99.90
19037;DHT22;9651;49.138;8.900;2022-08-19T08:21:08;25.40;99.90
19037;DHT22;9651;49.138;8.900;2022-08-19T08:25:14;25.40;99.90
19037;DHT22;9651;49.138;8.900;2022-08-19T08:29:17;25.40;99.90
19037;DHT22;9651;49.138;8.900;2022-08-19T08:33:21;25.50;99.90
19037;DHT22;9651;49.138;8.900;2022-08-19T08:37:23;25.70;99.90
19037;DHT22;9651;49.138;8.900;2022-08-19T08:41:34;25.90;99.90
19037;DHT22;9651;49.138;8.900;2022-08-19T08:45:43;26.00;99.90
19037;DHT22;9651;49.138;8.900;2022-08-19T08:49:51;26.20;99.90
19037;DHT22;9651;49.138;8.900;2022-08-19T08:53:56;26.20;99.90
19037;DHT22;9651;49.138;8.900;2022-08-19T08:58:03;26.30;99.90
19037;DHT22;9651;49.138;8.900;2022-08-19T09:02:06;26.40;99.90
19037;DHT22;9651;49.138;8.900;2022-08-19T09:06:13;26.70;99.90
19037;DHT22;9651;49.138;8.900;2022-08-19T09:10:20;27.10;99.90
19037;DHT22;9651;49.138;8.900;2022-08-19T09:14:34;27.10;99.90
19037;DHT22;9651;49.138;8.900;2022-08-19T09:18:40;27.40;99.90
19037;DHT22;9651;49.138;8.900;2022-08-19T09:22:43;28.40;99.90
19037;DHT22;9651;49.138;8.900;2022-08-19T09:26:45;29.80;99.90
19037;DHT22;9651;49.138;8.900;2022-08-19T09:30:49;31.00;99.90
19037;DHT22;9651;49.138;8.900;2022-08-19T09:34:52;32.10;99.20
19037;DHT22;9651;49.138;8.900;2022-08-19T09:38:55;32.60;97.20
19037;DHT22;9651;49.138;8.900;2022-08-19T09:42:58;32.60;96.30
19037;DHT22;9651;49.138;8.900;2022-08-19T09:47:04;31.90;96.10
19037;DHT22;9651;49.138;8.900;2022-08-19T09:51:08;31.40;96.30
19037;DHT22;9651;49.138;8.900;2022-08-19T09:55:10;30.80;96.70
19037;DHT22;9651;49.138;8.900;2022-08-19T09:59:12;31.10;96.50
19037;DHT22;9651;49.138;8.900;2022-08-19T10:03:16;31.50;95.70
19037;DHT22;9651;49.138;8.900;2022-08-19T10:07:17;31.10;95.70
19037;DHT22;9651;49.138;8.900;2022-08-19T10:11:20;30.80;96.10
19037;DHT22;9651;49.138;8.900;2022-08-19T10:15:22;30.90;95.90
19037;DHT22;9651;49.138;8.900;2022-08-19T10:19:26;31.20;95.30
19037;DHT22;9651;49.138;8.900;2022-08-19T10:23:32;31.20;94.80
19037;DHT22;9651;49.138;8.900;2022-08-19T10:27:34;31.30;94.80
19037;DHT22;9651;49.138;8.900;2022-08-19T10:31:38;31.80;94.20
19037;DHT22;9651;49.138;8.900;2022-08-19T10:35:41;32.00;93.50
19037;DHT22;9651;49.138;8.900;2022-08-19T10:39:48;31.80;93.70
19037;DHT22;9651;49.138;8.900;2022-08-19T10:43:51;31.60;93.40
19037;DHT22;9651;49.138;8.900;2022-08-19T10:47:55;31.70;93.00
19037;DHT22;9651;49.138;8.900;2022-08-19T10:51:58;31.60;92.90
19037;DHT22;9651;49.138;8.900;2022-08-19T10:56:18;31.50;92.20
19037;DHT22;9651;49.138;8.900;2022-08-19T11:00:39;31.20;92.40
19037;DHT22;9651;49.138;8.900;2022-08-19T11:04:41;30.80;92.90
19037;DHT22;9651;49.138;8.900;2022-08-19T11:08:45;30.60;93.10
19037;DHT22;9651;49.138;8.900;2022-08-19T11:12:47;30.60;92.90
19037;DHT22;9651;49.138;8.900;2022-08-19T11:16:51;31.70;91.60
19037;DHT22;9651;49.138;8.900;2022-08-19T11:20:53;33.30;88.20
19037;DHT22;9651;49.138;8.900;2022-08-19T11:24:56;33.50;83.60
19037;DHT22;9651;49.138;8.900;2022-08-19T11:28:59;33.90;81.80
19037;DHT22;9651;49.138;8.900;2022-08-19T11:33:01;35.50;77.30
19037;DHT22;9651;49.138;8.900;2022-08-19T11:37:04;36.60;72.50
19037;DHT22;9651;49.138;8.900;2022-08-19T11:41:07;36.80;68.70
19037;DHT22;9651;49.138;8.900;2022-08-19T11:45:10;37.30;67.00
19037;DHT22;9651;49.138;8.900;2022-08-19T11:49:14;36.40;67.60
19037;DHT22;9651;49.138;8.900;2022-08-19T11:53:17;35.60;67.60
19037;DHT22;9651;49.138;8.900;2022-08-19T11:57:21;36.50;65.70
19037;DHT22;9651;49.138;8.900;2022-08-19T12:01:24;36.50;65.30
19037;DHT22;9651;49.138;8.900;2022-08-19T12:05:27;35.60;64.50
19037;DHT22;9651;49.138;8.900;2022-08-19T12:09:29;34.60;64.40
19037;DHT22;9651;49.138;8.900;2022-08-19T12:13:34;34.20;65.90
19037;DHT22;9651;49.138;8.900;2022-08-19T12:17:37;33.70;67.30
19037;DHT22;9651;49.138;8.900;2022-08-19T12:21:39;33.30;67.20
19037;DHT22;9651;49.138;8.900;2022-08-19T12:25:45;33.00;67.80
19037;DHT22;9651;49.138;8.900;2022-08-19T12:29:51;32.90;69.30
19037;DHT22;9651;49.138;8.900;2022-08-19T12:33:53;33.40;70.10
19037;DHT22;9651;49.138;8.900;2022-08-19T12:37:55;33.40;70.10
19037;DHT22;9651;49.138;8.900;2022-08-19T12:41:57;33.40;70.80
19037;DHT22;9651;49.138;8.900;2022-08-19T12:46:00;33.50;70.70
19037;DHT22;9651;49.138;8.900;2022-08-19T12:50:03;33.80;69.80
19037;DHT22;9651;49.138;8.900;2022-08-19T12:54:09;34.00;69.50
19037;DHT22;9651;49.138;8.900;2022-08-19T12:58:11;34.00;70.00
19037;DHT22;9651;49.138;8.900;2022-08-19T13:02:15;34.20;69.00
19037;DHT22;9651;49.138;8.900;2022-08-19T13:06:17;34.00;68.80
19037;DHT22;9651;49.138;8.900;2022-08-19T13:10:20;34.00;69.00
19037;DHT22;9651;49.138;8.900;2022-08-19T13:14:22;35.60;67.40
19037;DHT22;9651;49.138;8.900;2022-08-19T13:18:26;37.70;63.00
19037;DHT22;9651;49.138;8.900;2022-08-19T13:22:27;38.50;61.00
19037;DHT22;9651;49.138;8.900;2022-08-19T13:26:29;38.30;60.00
19037;DHT22;9651;49.138;8.900;2022-08-19T13:30:32;37.70;60.00
19037;DHT22;9651;49.138;8.900;2022-08-19T13:34:53;37.00;59.80
19037;DHT22;9651;49.138;8.900;2022-08-19T13:38:55;35.40;61.00
19037;DHT22;9651;49.138;8.900;2022-08-19T13:43:01;34.20;63.00
19037;DHT22;9651;49.138;8.900;2022-08-19T13:47:04;33.30;64.30
19037;DHT22;9651;49.138;8.900;2022-08-19T13:51:08;32.80;65.00
19037;DHT22;9651;49.138;8.900;2022-08-19T13:55:12;32.80;65.70
19037;DHT22;9651;49.138;8.900;2022-08-19T13:59:14;33.50;64.60
19037;DHT22;9651;49.138;8.900;2022-08-19T14:03:17;33.30;63.20
19037;DHT22;9651;49.138;8.900;2022-08-19T14:07:20;33.30;63.10
19037;DHT22;9651;49.138;8.900;2022-08-19T14:11:24;33.40;63.40
19037;DHT22;9651;49.138;8.900;2022-08-19T14:15:27;33.50;62.40
19037;DHT22;9651;49.138;8.900;2022-08-19T14:19:29;33.30;62.10
19037;DHT22;9651;49.138;8.900;2022-08-19T14:23:32;33.20;62.10
19037;DHT22;9651;49.138;8.900;2022-08-19T14:27:35;33.20;62.00
19037;DHT22;9651;49.138;8.900;2022-08-19T14:31:38;33.30;62.20
19037;DHT22;9651;49.138;8.900;2022-08-19T14:35:41;33.30;61.60
19037;DHT22;9651;49.138;8.900;2022-08-19T14:39:46;33.30;62.20
19037;DHT22;9651;49.138;8.900;2022-08-19T14:43:49;33.40;61.80
19037;DHT22;9651;49.138;8.900;2022-08-19T14:47:52;33.20;60.90
19037;DHT22;9651;49.138;8.900;2022-08-19T14:51:54;33.40;60.50
19037;DHT22;9651;49.138;8.900;2022-08-19T14:55:58;34.30;59.80
19037;DHT22;9651;49.138;8.900;2022-08-19T15:00:01;34.90;58.70
19037;DHT22;9651;49.138;8.900;2022-08-19T15:04:03;35.00;57.70
19037;DHT22;9651;49.138;8.900;2022-08-19T15:08:06;35.20;56.90
19037;DHT22;9651;49.138;8.900;2022-08-19T15:12:09;35.20;56.40
19037;DHT22;9651;49.138;8.900;2022-08-19T15:16:11;34.60;56.70
19037;DHT22;9651;49.138;8.900;2022-08-19T15:20:17;34.20;57.10
19037;DHT22;9651;49.138;8.900;2022-08-19T15:24:19;33.90;57.50
19037;DHT22;9651;49.138;8.900;2022-08-19T15:28:23;33.40;57.70
19037;DHT22;9651;49.138;8.900;2022-08-19T15:32:27;32.60;57.80
19037;DHT22;9651;49.138;8.900;2022-08-19T15:36:29;31.80;58.60
19037;DHT22;9651;49.138;8.900;2022-08-19T15:40:31;31.30;59.10
19037;DHT22;9651;49.138;8.900;2022-08-19T15:44:35;30.90;59.80
19037;DHT22;9651;49.138;8.900;2022-08-19T15:48:37;30.80;60.40
19037;DHT22;9651;49.138;8.900;2022-08-19T15:52:45;30.60;60.80
19037;DHT22;9651;49.138;8.900;2022-08-19T15:56:48;30.50;60.80
19037;DHT22;9651;49.138;8.900;2022-08-19T16:01:09;30.40;61.50
19037;DHT22;9651;49.138;8.900;2022-08-19T16:05:34;30.00;61.00
19037;DHT22;9651;49.138;8.900;2022-08-19T16:09:53;29.90;61.20
19037;DHT22;9651;49.138;8.900;2022-08-19T16:13:55;29.80;61.70
19037;DHT22;9651;49.138;8.900;2022-08-19T16:17:59;29.80;61.80
19037;DHT22;9651;49.138;8.900;2022-08-19T16:22:02;29.80;62.80
19037;DHT22;9651;49.138;8.900;2022-08-19T16:26:05;29.80;62.70
19037;DHT22;9651;49.138;8.900;2022-08-19T16:30:09;29.80;62.90
19037;DHT22;9651;49.138;8.900;2022-08-19T16:34:13;29.70;63.00
19037;DHT22;9651;49.138;8.900;2022-08-19T16:38:15;29.70;63.30
19037;DHT22;9651;49.138;8.900;2022-08-19T16:42:16;29.60;64.20
19037;DHT22;9651;49.138;8.900;2022-08-19T16:46:19;29.50;64.40
19037;DHT22;9651;49.138;8.900;2022-08-19T16:50:23;29.40;64.60
19037;DHT22;9651;49.138;8.900;2022-08-19T16:54:25;29.20;65.00
19037;DHT22;9651;49.138;8.900;2022-08-19T16:58:29;29.10;65.90
19037;DHT22;9651;49.138;8.900;2022-08-19T17:02:33;29.10;67.30
19037;DHT22;9651;49.138;8.900;2022-08-19T17:06:37;28.90;68.80
19037;DHT22;9651;49.138;8.900;2022-08-19T17:10:39;28.80;70.50
19037;DHT22;9651;49.138;8.900;2022-08-19T17:14:43;28.50;71.20
19037;DHT22;9651;49.138;8.900;2022-08-19T17:18:45;28.40;72.40
19037;DHT22;9651;49.138;8.900;2022-08-19T17:22:53;28.20;73.00
19037;DHT22;9651;49.138;8.900;2022-08-19T17:26:56;28.00;74.60
19037;DHT22;9651;49.138;8.900;2022-08-19T17:31:00;28.00;74.90
19037;DHT22;9651;49.138;8.900;2022-08-19T17:35:02;27.80;75.50
19037;DHT22;9651;49.138;8.900;2022-08-19T17:39:06;27.80;75.50
19037;DHT22;9651;49.138;8.900;2022-08-19T17:43:08;27.60;76.00
19037;DHT22;9651;49.138;8.900;2022-08-19T17:47:10;27.40;76.90
19037;DHT22;9651;49.138;8.900;2022-08-19T17:51:14;27.30;79.00
19037;DHT22;9651;49.138;8.900;2022-08-19T17:55:18;27.10;78.80
19037;DHT22;9651;49.138;8.900;2022-08-19T17:59:20;26.90;77.90
19037;DHT22;9651;49.138;8.900;2022-08-19T18:03:22;26.80;78.60
19037;DHT22;9651;49.138;8.900;2022-08-19T18:07:24;26.80;79.40
19037;DHT22;9651;49.138;8.900;2022-08-19T18:11:28;26.80;81.80
19037;DHT22;9651;49.138;8.900;2022-08-19T18:15:30;26.70;83.90
19037;DHT22;9651;49.138;8.900;2022-08-19T18:19:36;26.60;85.20
19037;DHT22;9651;49.138;8.900;2022-08-19T18:23:38;26.50;87.40
19037;DHT22;9651;49.138;8.900;2022-08-19T18:27:42;26.40;88.10
19037;DHT22;9651;49.138;8.900;2022-08-19T18:31:44;26.40;89.30
19037;DHT22;9651;49.138;8.900;2022-08-19T18:35:49;26.30;90.50
19037;DHT22;9651;49.138;8.900;2022-08-19T18:39:51;26.30;90.90
19037;DHT22;9651;49.138;8.900;2022-08-19T18:44:12;26.00;92.40
19037;DHT22;9651;49.138;8.900;2022-08-19T18:48:31;25.70;93.90
19037;DHT22;9651;49.138;8.900;2022-08-19T18:52:51;25.50;95.00
19037;DHT22;9651;49.138;8.900;2022-08-19T18:56:53;25.50;96.10
19037;DHT22;9651;49.138;8.900;2022-08-19T19:00:58;25.50;97.30
19037;DHT22;9651;49.138;8.900;2022-08-19T19:05:00;25.40;97.90
19037;DHT22;9651;49.138;8.900;2022-08-19T19:09:02;25.30;98.30
19037;DHT22;9651;49.138;8.900;2022-08-19T19:13:05;25.30;99.10
19037;DHT22;9651;49.138;8.900;2022-08-19T19:17:10;25.30;99.50
19037;DHT22;9651;49.138;8.900;2022-08-19T19:21:12;25.20;99.90
19037;DHT22;9651;49.138;8.900;2022-08-19T19:25:14;25.10;99.90
19037;DHT22;9651;49.138;8.900;2022-08-19T19:29:17;25.00;99.90
19037;DHT22;9651;49.138;8.900;2022-08-19T19:33:20;25.00;99.90
19037;DHT22;9651;49.138;8.900;2022-08-19T19:37:22;24.90;99.90
19037;DHT22;9651;49.138;8.900;2022-08-19T19:41:24;24.90;99.90
19037;DHT22;9651;49.138;8.900;2022-08-19T19:45:26;24.80;99.90
19037;DHT22;9651;49.138;8.900;2022-08-19T19:49:31;24.70;99.90
19037;DHT22;9651;49.138;8.900;2022-08-19T19:53:33;24.40;99.90
19037;DHT22;9651;49.138;8.900;2022-08-19T19:57:35;24.30;99.90
19037;DHT22;9651;49.138;8.900;2022-08-19T20:01:38;24.20;99.90
19037;DHT22;9651;49.138;8.900;2022-08-19T20:05:47;24.20;99.90
19037;DHT22;9651;49.138;8.900;2022-08-19T20:09:49;24.20;99.90
19037;DHT22;9651;49.138;8.900;2022-08-19T20:13:50;24.10;99.90
19037;DHT22;9651;49.138;8.900;2022-08-19T20:17:53;24.10;99.90
19037;DHT22;9651;49.138;8.900;2022-08-19T20:21:56;24.10;99.90
19037;DHT22;9651;49.138;8.900;2022-08-19T20:25:58;24.10;99.90
19037;DHT22;9651;49.138;8.900;2022-08-19T20:30:00;24.10;99.90
19037;DHT22;9651;49.138;8.900;2022-08-19T20:34:05;24.20;99.90
19037;DHT22;9651;49.138;8.900;2022-08-19T20:38:08;24.10;99.90
19037;DHT22;9651;49.138;8.900;2022-08-19T20:42:10;24.10;99.90
19037;DHT22;9651;49.138;8.900;2022-08-19T20:46:12;24.10;99.90
19037;DHT22;9651;49.138;8.900;2022-08-19T20:50:15;24.10;99.90
19037;DHT22;9651;49.138;8.900;2022-08-19T20:54:19;24.10;99.90
19037;DHT22;9651;49.138;8.900;2022-08-19T20:58:22;24.00;99.90
19037;DHT22;9651;49.138;8.900;2022-08-19T21:02:24;24.00;99.90
19037;DHT22;9651;49.138;8.900;2022-08-19T21:06:26;24.00;99.90
19037;DHT22;9651;49.138;8.900;2022-08-19T21:10:29;23.90;99.90
19037;DHT22;9651;49.138;8.900;2022-08-19T21:14:32;23.90;99.90
19037;DHT22;9651;49.138;8.900;2022-08-19T21:18:34;23.90;99.90
19037;DHT22;9651;49.138;8.900;2022-08-19T21:22:36;23.90;99.90
19037;DHT22;9651;49.138;8.900;2022-08-19T21:26:40;23.90;99.90
19037;DHT22;9651;49.138;8.900;2022-08-19T21:30:41;23.90;99.90
19037;DHT22;9651;49.138;8.900;2022-08-19T21:34:43;23.90;99.90
19037;DHT22;9651;49.138;8.900;2022-08-19T21:38:46;23.90;99.90
19037;DHT22;9651;49.138;8.900;2022-08-19T21:42:49;23.90;99.90
19037;DHT22;9651;49.138;8.900;2022-08-19T21:46:51;23.90;99.90
19037;DHT22;9651;49.138;8.900;2022-08-19T21:50:53;23.80;99.90
19037;DHT22;9651;49.138;8.900;2022-08-19T21:54:55;23.80;99.90
19037;DHT22;9651;49.138;8.900;2022-08-19T21:58:59;23.70;99.90
19037;DHT22;9651;49.138;8.900;2022-08-19T22:03:01;23.60;99.90
19037;DHT22;9651;49.138;8.900;2022-08-19T22:07:03;23.50;99.90
19037;DHT22;9651;49.138;8.900;2022-08-19T22:11:06;23.40;99.90
19037;DHT22;9651;49.138;8.900;2022-08-19T22:15:11;23.30;99.90
19037;DHT22;9651;49.138;8.900;2022-08-19T22:19:14;23.10;99.90
19037;DHT22;9651;49.138;8.900;2022-08-19T22:23:16;23.00;99.90
19037;DHT22;9651;49.138;8.900;2022-08-19T22:27:18;22.90;99.90
19037;DHT22;9651;49.138;8.900;2022-08-19T22:31:22;22.80;99.90
19037;DHT22;9651;49.138;8.900;2022-08-19T22:35:24;22.80;99.90
19037;DHT22;9651;49.138;8.900;2022-08-19T22:39:29;22.70;99.90
19037;DHT22;9651;49.138;8.900;2022-08-19T22:43:31;22.60;99.90
19037;DHT22;9651;49.138;8.900;2022-08-19T22:47:35;22.60;99.90
19037;DHT22;9651;49.138;8.900;2022-08-19T22:51:37;22.50;99.90
19037;DHT22;9651;49.138;8.900;2022-08-19T22:55:56;22.40;99.90
19037;DHT22;9651;49.138;8.900;2022-08-19T22:59:58;22.40;99.90
19037;DHT22;9651;49.138;8.900;2022-08-19T23:04:03;22.30;99.90
19037;DHT22;9651;49.138;8.900;2022-08-19T23:08:05;22.20;99.90
19037;DHT22;9651;49.138;8.900;2022-08-19T23:12:07;22.10;99.90
19037;DHT22;9651;49.138;8.900;2022-08-19T23:16:09;22.10;99.90
19037;DHT22;9651;49.138;8.900;2022-08-19T23:20:14;22.00;99.90
19037;DHT22;9651;49.138;8.900;2022-08-19T23:24:17;21.90;99.90
19037;DHT22;9651;49.138;8.900;2022-08-19T23:28:19;21.80;99.90
19037;DHT22;9651;49.138;8.900;2022-08-19T23:32:39;21.70;99.90
19037;DHT22;9651;49.138;8.900;2022-08-19T23:36:42;21.60;99.90
19037;DHT22;9651;49.138;8.900;2022-08-19T23:40:46;21.50;99.90
19037;DHT22;9651;49.138;8.900;2022-08-19T23:44:48;21.50;99.90
19037;DHT22;9651;49.138;8.900;2022-08-19T23:48:50;21.40;99.90
19037;DHT22;9651;49.138;8.900;2022-08-19T23:52:56;21.40;99.90
19037;DHT22;9651;49.138;8.900;2022-08-19T23:56:59;21.30;99.90
